createdAt,value
2023-04-27T00:00:29.301Z,98884.24
2023-04-27T00:02:49.708Z,98888.14
2023-04-27T00:04:53.601Z,98888.77
2023-04-27T00:06:57.028Z,98888.12
2023-04-27T00:09:02.027Z,98886.36
2023-04-27T00:11:04.920Z,98883.41
2023-04-27T00:13:10.083Z,98882.06
2023-04-27T00:15:12.840Z,98885.79
2023-04-27T00:17:18.994Z,98882.40
2023-04-27T00:19:26.198Z,98884.05
2023-04-27T00:21:32.139Z,98888.09
2023-04-27T00:23:37.683Z,98883.42
2023-04-27T00:25:41.395Z,98883.13
2023-04-27T00:27:50.152Z,98883.48
2023-04-27T00:29:55.244Z,98879.20
2023-04-27T00:31:57.956Z,98877.55
2023-04-27T00:34:03.573Z,98875.86
2023-04-27T00:36:06.958Z,98875.20
2023-04-27T00:38:09.956Z,98877.09
2023-04-27T00:40:12.904Z,98876.58
2023-04-27T00:42:22.065Z,98875.67
2023-04-27T00:44:29.835Z,98870.27
2023-04-27T00:46:35.816Z,98871.52
2023-04-27T00:48:39.658Z,98872.02
2023-04-27T00:50:43.789Z,98873.39
2023-04-27T00:52:46.574Z,98870.56
2023-04-27T00:54:52.820Z,98867.10
2023-04-27T00:56:58.370Z,98864.02
2023-04-27T00:59:02.881Z,98864.02
2023-04-27T01:01:06.465Z,98862.66
2023-04-27T01:03:15.422Z,98862.77
2023-04-27T01:05:20.572Z,98862.58
2023-04-27T01:07:27.280Z,98862.58
2023-04-27T01:09:30.577Z,98864.30
2023-04-27T01:11:36.929Z,98865.30
2023-04-27T01:13:42.348Z,98866.43
2023-04-27T01:15:46.860Z,98869.34
2023-04-27T01:17:49.635Z,98867.00
2023-04-27T01:19:55.477Z,98867.85
2023-04-27T01:21:59.052Z,98864.88
2023-04-27T01:24:10.849Z,98867.31
2023-04-27T01:26:16.412Z,98869.35
2023-04-27T01:30:55.176Z,98863.89
2023-04-27T01:33:01.936Z,98864.27
2023-04-27T01:35:07.120Z,98859.84
2023-04-27T01:37:10.777Z,98858.21
2023-04-27T01:39:13.969Z,98858.10
2023-04-27T01:41:17.462Z,98862.08
2023-04-27T01:43:20.099Z,98863.61
2023-04-27T01:45:22.878Z,98864.67
2023-04-27T01:47:30.143Z,98863.32
2023-04-27T01:49:52.806Z,98864.61
2023-04-27T01:51:57.121Z,98866.02
2023-04-27T01:53:59.931Z,98867.55
2023-04-27T01:56:08.724Z,98868.05
2023-04-27T01:58:14.764Z,98869.11
2023-04-27T02:00:18.839Z,98866.38
2023-04-27T02:02:24.681Z,98868.09
2023-04-27T02:04:31.885Z,98868.72
2023-04-27T02:06:35.690Z,98868.14
2023-04-27T02:08:38.966Z,98871.48
2023-04-27T02:10:44.347Z,98871.17
2023-04-27T02:12:49.857Z,98874.95
2023-04-27T02:14:53.051Z,98873.80
2023-04-27T02:16:55.845Z,98878.36
2023-04-27T02:19:00.168Z,98878.23
2023-04-27T02:21:08.636Z,98882.10
2023-04-27T02:23:12.766Z,98882.46
2023-04-27T02:25:20.991Z,98884.71
2023-04-27T02:27:24.914Z,98880.54
2023-04-27T02:29:40.402Z,98882.80
2023-04-27T02:31:44.418Z,98884.75
2023-04-27T02:33:49.546Z,98887.84
2023-04-27T02:35:54.720Z,98883.05
2023-04-27T02:37:57.685Z,98883.80
2023-04-27T02:40:02.171Z,98882.54
2023-04-27T02:42:08.304Z,98881.52
2023-04-27T02:44:12.444Z,98886.52
2023-04-27T02:46:15.535Z,98888.56
2023-04-27T02:48:18.432Z,98888.96
2023-04-27T02:50:21.405Z,98889.55
2023-04-27T02:52:23.995Z,98889.79
2023-04-27T02:54:26.816Z,98894.02
2023-04-27T02:56:29.837Z,98895.51
2023-04-27T02:58:33.380Z,98901.63
2023-04-27T03:00:36.460Z,98898.73
2023-04-27T03:02:39.337Z,98900.19
2023-04-27T03:04:43.945Z,98897.61
2023-04-27T03:06:57.730Z,98895.56
2023-04-27T03:09:05.381Z,98897.19
2023-04-27T03:11:10.067Z,98901.95
2023-04-27T03:13:16.771Z,98904.70
2023-04-27T03:15:20.383Z,98906.42
2023-04-27T03:17:24.261Z,98908.46
2023-04-27T03:19:28.213Z,98906.99
2023-04-27T03:21:33.770Z,98906.86
2023-04-27T03:23:37.947Z,98910.17
2023-04-27T03:25:42.680Z,98904.34
2023-04-27T03:27:47.019Z,98905.56
2023-04-27T03:29:55.906Z,98909.02
2023-04-27T03:32:08.428Z,98906.64
2023-04-27T03:34:16.075Z,98908.27
2023-04-27T03:36:22.355Z,98909.93
2023-04-27T03:38:27.971Z,98908.71
2023-04-27T03:40:32.349Z,98911.77
2023-04-27T03:42:35.617Z,98919.12
2023-04-27T03:44:39.343Z,98921.23
2023-04-27T03:46:43.375Z,98924.57
2023-04-27T03:48:47.563Z,98925.58
2023-04-27T03:50:52.323Z,98927.85
2023-04-27T03:52:56.596Z,98926.88
2023-04-27T03:55:09.672Z,98926.41
2023-04-27T03:57:22.751Z,98925.19
2023-04-27T03:59:29.935Z,98928.20
2023-04-27T04:01:35.199Z,98929.66
2023-04-27T04:03:40.762Z,98926.91
2023-04-27T04:05:48.454Z,98928.00
2023-04-27T04:08:02.421Z,98927.71
2023-04-27T04:10:09.481Z,98927.70
2023-04-27T04:12:20.626Z,98926.58
2023-04-27T04:14:23.768Z,98927.77
2023-04-27T04:16:28.907Z,98925.23
2023-04-27T04:18:33.313Z,98927.73
2023-04-27T04:20:36.583Z,98928.04
2023-04-27T04:22:44.597Z,98928.98
2023-04-27T04:24:50.520Z,98925.33
2023-04-27T04:26:55.469Z,98924.69
2023-04-27T04:29:03.545Z,98925.46
2023-04-27T04:31:09.946Z,98925.98
2023-04-27T04:33:14.202Z,98920.61
2023-04-27T04:35:19.882Z,98922.23
2023-04-27T04:37:24.959Z,98924.98
2023-04-27T04:39:32.304Z,98930.70
2023-04-27T04:41:35.396Z,98931.68
2023-04-27T04:43:39.283Z,98933.09
2023-04-27T04:45:43.731Z,98933.46
2023-04-27T04:47:49.453Z,98931.83
2023-04-27T04:49:52.421Z,98936.75
2023-04-27T04:52:12.974Z,98935.09
2023-04-27T04:54:16.308Z,98932.92
2023-04-27T04:56:21.522Z,98937.13
2023-04-27T04:58:26.122Z,98935.92
2023-04-27T05:00:30.260Z,98935.15
2023-04-27T05:02:35.742Z,98934.33
2023-04-27T05:04:40.311Z,98937.80
2023-04-27T05:06:43.460Z,98942.59
2023-04-27T05:08:46.362Z,98946.89
2023-04-27T05:10:53.991Z,98944.27
2023-04-27T05:15:36.628Z,98950.40
2023-04-27T05:17:42.342Z,98949.59
2023-04-27T05:19:47.451Z,98955.83
2023-04-27T05:21:52.147Z,98962.92
2023-04-27T05:23:56.460Z,98966.99
2023-04-27T05:26:00.388Z,98965.70
2023-04-27T05:28:03.840Z,98964.05
2023-04-27T05:30:08.889Z,98968.64
2023-04-27T05:32:18.620Z,98976.52
2023-04-27T05:34:25.938Z,98975.50
2023-04-27T05:36:28.879Z,98979.95
2023-04-27T05:38:34.625Z,98984.89
2023-04-27T05:40:38.102Z,98983.09
2023-04-27T05:42:42.818Z,98983.81
2023-04-27T05:44:55.405Z,98985.56
2023-04-27T05:47:00.194Z,98985.98
2023-04-27T05:49:07.880Z,98979.84
2023-04-27T05:51:13.493Z,98980.69
2023-04-27T05:53:28.700Z,98974.11
2023-04-27T05:55:34.002Z,98965.48
2023-04-27T05:57:40.306Z,98966.23
2023-04-27T05:59:45.822Z,98968.64
2023-04-27T06:01:55.603Z,98972.25
2023-04-27T06:04:02.154Z,98974.77
2023-04-27T06:06:07.349Z,98971.12
2023-04-27T06:08:42.203Z,98969.54
2023-04-27T06:10:46.688Z,98970.58
2023-04-27T06:12:51.614Z,98975.39
2023-04-27T06:14:56.005Z,98969.73
2023-04-27T06:16:59.585Z,98970.83
2023-04-27T06:19:03.570Z,98969.42
2023-04-27T06:21:10.327Z,98968.33
2023-04-27T06:23:13.544Z,98970.36
2023-04-27T06:25:17.336Z,98972.11
2023-04-27T06:27:22.745Z,98975.25
2023-04-27T06:29:28.681Z,98966.95
2023-04-27T06:31:31.839Z,98968.20
2023-04-27T06:33:39.273Z,98968.54
2023-04-27T06:35:47.389Z,98967.92
2023-04-27T06:37:52.180Z,98967.12
2023-04-27T06:39:58.116Z,98964.86
2023-04-27T06:42:01.429Z,98965.95
2023-04-27T06:44:07.313Z,98967.38
2023-04-27T06:46:13.689Z,98969.45
2023-04-27T06:48:17.452Z,98973.41
2023-04-27T06:50:29.294Z,98974.39
2023-04-27T06:52:33.899Z,98973.61
2023-04-27T06:54:39.653Z,98972.99
2023-04-27T06:57:07.263Z,98970.67
2023-04-27T06:59:18.297Z,98967.55
2023-04-27T07:01:26.075Z,98968.21
2023-04-27T07:03:34.582Z,98967.52
2023-04-27T07:05:37.797Z,98968.49
2023-04-27T07:07:41.311Z,98967.80
2023-04-27T07:09:48.922Z,98971.16
2023-04-27T07:11:54.432Z,98970.04
2023-04-27T07:13:57.079Z,98966.74
2023-04-27T07:16:02.117Z,98966.45
2023-04-27T07:18:08.043Z,98967.86
2023-04-27T07:20:14.367Z,98970.94
2023-04-27T07:22:20.420Z,98974.95
2023-04-27T07:24:25.314Z,98973.16
2023-04-27T07:26:33.579Z,98976.64
2023-04-27T07:28:38.608Z,98975.93
2023-04-27T07:30:42.693Z,98978.85
2023-04-27T07:32:54.267Z,98978.87
2023-04-27T07:34:59.058Z,98978.83
2023-04-27T07:37:02.588Z,98979.98
2023-04-27T07:39:06.620Z,98984.88
2023-04-27T07:41:12.244Z,98980.71
2023-04-27T07:43:16.362Z,98979.36
2023-04-27T07:45:22.013Z,98977.33
2023-04-27T07:47:25.598Z,98976.80
2023-04-27T07:49:29.518Z,98979.84
2023-04-27T07:51:34.970Z,98984.80
2023-04-27T07:53:38.676Z,98982.80
2023-04-27T07:55:44.110Z,98985.91
2023-04-27T07:57:48.354Z,98985.83
2023-04-27T07:59:51.430Z,98987.70
2023-04-27T08:02:04.100Z,98989.03
2023-04-27T08:04:16.514Z,98990.36
2023-04-27T08:06:20.713Z,98988.39
2023-04-27T08:08:23.659Z,98991.48
2023-04-27T08:10:27.005Z,98992.22
2023-04-27T08:12:29.960Z,98987.80
2023-04-27T08:14:35.799Z,98986.94
2023-04-27T08:16:41.773Z,98987.98
2023-04-27T08:18:45.591Z,98988.54
2023-04-27T08:20:51.016Z,98984.68
2023-04-27T08:22:56.326Z,98983.20
2023-04-27T08:25:01.135Z,98984.91
2023-04-27T08:27:14.286Z,98986.18
2023-04-27T08:29:26.848Z,98986.56
2023-04-27T08:31:33.448Z,98985.02
2023-04-27T08:33:37.469Z,98984.08
2023-04-27T08:35:40.556Z,98983.45
2023-04-27T08:37:44.996Z,98983.54
2023-04-27T08:39:48.636Z,98982.37
2023-04-27T08:41:51.735Z,98984.45
2023-04-27T08:43:55.129Z,98985.45
2023-04-27T08:45:59.554Z,98982.52
2023-04-27T08:48:02.390Z,98982.85
2023-04-27T08:50:06.311Z,98978.66
2023-04-27T08:52:14.554Z,98981.12
2023-04-27T08:54:20.104Z,98983.30
2023-04-27T08:56:28.312Z,98984.66
2023-04-27T08:58:48.816Z,98981.61
2023-04-27T09:00:52.651Z,98978.81
2023-04-27T09:02:57.317Z,98979.11
2023-04-27T09:05:00.502Z,98981.67
2023-04-27T09:07:11.900Z,98982.30
2023-04-27T09:09:25.210Z,98982.93
2023-04-27T09:11:36.783Z,98977.84
2023-04-27T09:13:45.513Z,98973.84
2023-04-27T09:15:54.346Z,98971.78
2023-04-27T09:17:58.358Z,98971.52
2023-04-27T09:20:10.411Z,98967.52
2023-04-27T09:22:16.191Z,98964.68
2023-04-27T09:24:18.966Z,98964.73
2023-04-27T09:26:25.164Z,98959.23
2023-04-27T09:28:35.325Z,98960.64
2023-04-27T09:30:38.542Z,98957.83
2023-04-27T09:32:51.983Z,98957.34
2023-04-27T09:34:56.516Z,98953.36
2023-04-27T09:37:03.087Z,98952.85
2023-04-27T09:39:09.163Z,98950.02
2023-04-27T09:41:31.244Z,98949.33
2023-04-27T09:43:37.300Z,98948.46
2023-04-27T09:45:42.356Z,98947.70
2023-04-27T09:47:46.340Z,98948.27
2023-04-27T09:49:53.368Z,98947.36
2023-04-27T09:52:02.395Z,98944.63
2023-04-27T09:54:16.161Z,98938.55
2023-04-27T09:56:36.458Z,98937.68
2023-04-27T09:59:38.552Z,98935.20
2023-04-27T10:01:48.115Z,98933.74
2023-04-27T10:04:05.337Z,98931.38
2023-04-27T10:06:45.716Z,98928.61
2023-04-27T10:08:54.008Z,98925.10
2023-04-27T10:10:59.040Z,98920.23
2023-04-27T10:13:02.553Z,98919.82
2023-04-27T10:15:18.180Z,98919.83
2023-04-27T10:17:37.342Z,98916.06
2023-04-27T10:19:57.342Z,98917.96
2023-04-27T10:22:07.480Z,98919.55
2023-04-27T10:24:10.438Z,98920.90
2023-04-27T10:26:25.813Z,98919.24
2023-04-27T10:28:40.164Z,98914.52
2023-04-27T10:30:47.206Z,98908.45
2023-04-27T10:32:58.337Z,98911.67
2023-04-27T10:35:09.578Z,98908.04
2023-04-27T10:37:12.583Z,98914.12
2023-04-27T10:39:32.687Z,98909.60
2023-04-27T10:41:56.318Z,98908.23
2023-04-27T10:44:17.212Z,98906.96
2023-04-27T10:46:21.752Z,98905.77
2023-04-27T10:48:25.056Z,98906.02
2023-04-27T10:50:27.925Z,98906.13
2023-04-27T10:52:31.126Z,98901.30
2023-04-27T10:54:35.084Z,98902.16
2023-04-27T10:56:38.400Z,98900.87
2023-04-27T10:58:49.060Z,98903.42
2023-04-27T11:00:52.639Z,98905.52
2023-04-27T11:02:58.332Z,98903.58
2023-04-27T11:05:02.571Z,98899.98
2023-04-27T11:07:08.952Z,98895.98
2023-04-27T11:09:19.032Z,98901.08
2023-04-27T11:11:24.495Z,98894.21
2023-04-27T11:13:33.989Z,98892.27
2023-04-27T11:15:48.061Z,98895.98
2023-04-27T11:17:51.951Z,98894.50
2023-04-27T11:19:55.632Z,98894.96
2023-04-27T11:22:06.430Z,98892.90
2023-04-27T11:24:15.107Z,98893.91
2023-04-27T11:26:21.779Z,98892.48
2023-04-27T11:28:25.909Z,98895.90
2023-04-27T11:30:28.658Z,98893.39
2023-04-27T11:32:33.615Z,98889.94
2023-04-27T11:34:41.416Z,98884.89
2023-04-27T11:36:47.603Z,98885.84
2023-04-27T11:38:50.807Z,98887.33
2023-04-27T11:41:07.988Z,98887.52
2023-04-27T11:43:17.833Z,98885.27
2023-04-27T11:45:26.638Z,98883.65
2023-04-27T11:47:31.536Z,98887.70
2023-04-27T11:49:38.668Z,98889.23
2023-04-27T11:51:45.191Z,98890.86
2023-04-27T11:53:48.778Z,98888.56
2023-04-27T11:55:55.152Z,98888.05
2023-04-27T11:58:03.240Z,98888.23
2023-04-27T12:00:12.601Z,98889.70
2023-04-27T12:02:19.845Z,98887.80
2023-04-27T12:04:23.187Z,98891.88
2023-04-27T12:06:33.042Z,98892.08
2023-04-27T12:08:38.075Z,98887.05
2023-04-27T12:10:41.119Z,98887.61
2023-04-27T12:12:44.220Z,98879.45
2023-04-27T12:14:47.191Z,98877.98
2023-04-27T12:16:50.924Z,98880.40
2023-04-27T12:18:53.773Z,98875.17
2023-04-27T12:20:56.420Z,98874.61
2023-04-27T12:22:59.578Z,98874.88
2023-04-27T12:25:03.221Z,98872.56
2023-04-27T12:27:07.314Z,98865.59
2023-04-27T12:29:11.617Z,98870.60
2023-04-27T12:31:25.334Z,98868.44
2023-04-27T12:33:35.139Z,98865.14
2023-04-27T12:35:38.533Z,98866.23
2023-04-27T12:37:43.041Z,98865.31
2023-04-27T12:39:49.436Z,98863.82
2023-04-27T12:41:53.405Z,98863.92
2023-04-27T12:43:56.839Z,98863.73
2023-04-27T12:46:00.131Z,98858.27
2023-04-27T12:48:06.479Z,98859.84
2023-04-27T12:50:09.981Z,98855.77
2023-04-27T12:52:13.630Z,98854.38
2023-04-27T12:54:17.396Z,98854.76
2023-04-27T12:56:35.793Z,98853.05
2023-04-27T12:58:43.033Z,98852.36
2023-04-27T13:00:47.561Z,98857.66
2023-04-27T13:02:52.325Z,98852.71
2023-04-27T13:04:55.476Z,98848.17
2023-04-27T13:07:02.629Z,98846.36
2023-04-27T13:09:06.712Z,98841.27
2023-04-27T13:11:11.037Z,98843.00
2023-04-27T13:13:16.345Z,98846.43
2023-04-27T13:15:21.282Z,98842.09
2023-04-27T13:17:28.666Z,98838.46
2023-04-27T13:19:35.666Z,98842.41
2023-04-27T13:21:42.546Z,98835.06
2023-04-27T13:23:46.991Z,98832.57
2023-04-27T13:25:49.967Z,98836.88
2023-04-27T13:27:58.197Z,98833.27
2023-04-27T13:30:01.843Z,98831.90
2023-04-27T13:34:31.858Z,98831.88
2023-04-27T13:36:38.709Z,98825.77
2023-04-27T13:38:43.162Z,98825.30
2023-04-27T13:40:48.568Z,98823.73
2023-04-27T13:42:52.144Z,98825.45
2023-04-27T13:44:56.914Z,98825.13
2023-04-27T13:47:09.235Z,98817.59
2023-04-27T13:49:19.155Z,98818.58
2023-04-27T13:51:35.978Z,98819.96
2023-04-27T13:53:40.490Z,98825.21
2023-04-27T13:55:50.493Z,98822.67
2023-04-27T13:57:57.509Z,98824.90
2023-04-27T14:00:02.115Z,98828.69
2023-04-27T14:02:11.561Z,98823.96
2023-04-27T14:04:16.912Z,98821.77
2023-04-27T14:06:25.392Z,98822.25
2023-04-27T14:08:39.459Z,98824.59
2023-04-27T14:10:49.157Z,98822.55
2023-04-27T14:12:53.585Z,98824.20
2023-04-27T14:14:58.538Z,98819.77
2023-04-27T14:17:02.663Z,98820.64
2023-04-27T14:19:07.685Z,98818.36
2023-04-27T14:21:10.913Z,98815.21
2023-04-27T14:23:14.064Z,98821.54
2023-04-27T14:25:18.542Z,98820.53
2023-04-27T14:27:21.714Z,98820.70
2023-04-27T14:29:27.050Z,98822.48
2023-04-27T14:31:33.049Z,98817.54
2023-04-27T14:33:39.949Z,98815.80
2023-04-27T14:35:43.351Z,98813.25
2023-04-27T14:37:54.305Z,98809.90
2023-04-27T14:39:57.422Z,98810.99
2023-04-27T14:42:01.632Z,98812.89
2023-04-27T14:44:10.283Z,98809.41
2023-04-27T14:48:23.399Z,98809.58
2023-04-27T14:50:27.963Z,98809.11
2023-04-27T14:52:31.772Z,98810.52
2023-04-27T14:54:37.064Z,98808.68
2023-04-27T14:56:41.850Z,98812.05
2023-04-27T14:58:46.919Z,98812.18
2023-04-27T15:00:51.778Z,98813.05
2023-04-27T15:02:56.879Z,98808.42
2023-04-27T15:05:01.341Z,98803.77
2023-04-27T15:07:05.847Z,98805.27
2023-04-27T15:09:13.318Z,98809.31
2023-04-27T15:11:16.679Z,98805.25
2023-04-27T15:13:19.760Z,98801.52
2023-04-27T15:15:22.949Z,98799.02
2023-04-27T15:17:26.698Z,98796.44
2023-04-27T15:19:29.649Z,98793.77
2023-04-27T15:21:34.171Z,98798.23
2023-04-27T15:23:41.003Z,98798.38
2023-04-27T15:25:44.383Z,98793.92
2023-04-27T15:27:48.339Z,98794.85
2023-04-27T15:30:02.915Z,98793.45
2023-04-27T15:32:06.106Z,98792.50
2023-04-27T15:34:09.730Z,98793.33
2023-04-27T15:36:12.787Z,98789.21
2023-04-27T15:38:15.575Z,98788.02
2023-04-27T15:40:18.751Z,98787.38
2023-04-27T15:42:23.336Z,98782.94
2023-04-27T15:44:26.247Z,98784.83
2023-04-27T15:46:29.214Z,98783.58
2023-04-27T15:48:32.532Z,98779.92
2023-04-27T15:50:35.672Z,98778.73
2023-04-27T15:52:38.255Z,98775.15
2023-04-27T15:54:41.834Z,98774.77
2023-04-27T15:56:44.671Z,98768.77
2023-04-27T15:58:47.637Z,98770.13
2023-04-27T16:00:50.837Z,98768.02
2023-04-27T16:02:54.919Z,98768.30
2023-04-27T16:04:57.786Z,98763.44
2023-04-27T16:07:00.739Z,98760.34
2023-04-27T16:09:04.339Z,98761.00
2023-04-27T16:11:16.550Z,98759.66
2023-04-27T16:13:23.120Z,98758.23
2023-04-27T16:15:26.290Z,98755.73
2023-04-27T16:17:31.729Z,98758.37
2023-04-27T16:19:34.538Z,98757.02
2023-04-27T16:21:37.295Z,98756.05
2023-04-27T16:23:40.160Z,98760.05
2023-04-27T16:25:43.258Z,98755.48
2023-04-27T16:27:46.259Z,98751.95
2023-04-27T16:29:48.944Z,98750.03
2023-04-27T16:31:53.984Z,98748.58
2023-04-27T16:33:56.816Z,98746.84
2023-04-27T16:35:59.566Z,98749.48
2023-04-27T16:38:06.524Z,98746.63
2023-04-27T16:40:11.558Z,98754.55
2023-04-27T16:42:19.908Z,98752.55
2023-04-27T16:44:23.872Z,98754.60
2023-04-27T16:46:27.029Z,98753.23
2023-04-27T16:48:41.070Z,98755.38
2023-04-27T16:50:47.132Z,98756.38
2023-04-27T16:52:50.091Z,98756.98
2023-04-27T16:54:53.112Z,98756.09
2023-04-27T16:56:57.650Z,98755.66
2023-04-27T16:59:01.718Z,98754.42
2023-04-27T17:01:09.320Z,98755.02
2023-04-27T17:03:13.190Z,98751.23
2023-04-27T17:05:17.296Z,98752.14
2023-04-27T17:07:20.623Z,98754.15
2023-04-27T17:09:23.484Z,98756.65
2023-04-27T17:11:30.144Z,98756.34
2023-04-27T17:13:34.879Z,98755.33
2023-04-27T17:15:40.137Z,98755.98
2023-04-27T17:17:44.499Z,98756.20
2023-04-27T17:19:47.302Z,98756.34
2023-04-27T17:21:51.246Z,98755.70
2023-04-27T17:23:54.423Z,98756.45
2023-04-27T17:25:57.492Z,98753.59
2023-04-27T17:28:02.496Z,98755.14
2023-04-27T17:30:08.256Z,98752.25
2023-04-27T17:32:11.616Z,98751.38
2023-04-27T17:34:14.561Z,98751.98
2023-04-27T17:36:17.319Z,98749.36
2023-04-27T17:38:21.014Z,98749.89
2023-04-27T17:40:24.592Z,98743.88
2023-04-27T17:42:28.332Z,98747.70
2023-04-27T17:44:31.728Z,98746.41
2023-04-27T17:46:34.918Z,98743.77
2023-04-27T17:48:38.115Z,98740.36
2023-04-27T17:50:41.128Z,98742.36
2023-04-27T17:52:44.228Z,98739.33
2023-04-27T17:54:48.157Z,98745.94
2023-04-27T17:56:54.444Z,98747.39
2023-04-27T17:59:02.935Z,98744.80
2023-04-27T18:01:20.915Z,98745.21
2023-04-27T18:03:24.138Z,98746.71
2023-04-27T18:05:27.491Z,98744.77
2023-04-27T18:07:30.804Z,98739.20
2023-04-27T18:09:34.003Z,98743.66
2023-04-27T18:11:36.725Z,98743.52
2023-04-27T18:13:41.748Z,98744.83
2023-04-27T18:15:45.415Z,98746.88
2023-04-27T18:17:49.256Z,98745.79
2023-04-27T18:20:07.068Z,98745.75
2023-04-27T18:22:11.908Z,98749.27
2023-04-27T18:24:14.780Z,98747.17
2023-04-27T18:26:18.550Z,98746.56
2023-04-27T18:28:22.172Z,98749.05
2023-04-27T18:30:26.606Z,98748.29
2023-04-27T18:32:29.328Z,98748.08
2023-04-27T18:34:35.020Z,98748.80
2023-04-27T18:36:38.050Z,98748.94
2023-04-27T18:38:44.947Z,98753.61
2023-04-27T18:40:50.731Z,98754.94
2023-04-27T18:43:11.215Z,98753.80
2023-04-27T18:45:19.092Z,98754.84
2023-04-27T18:47:23.734Z,98757.15
2023-04-27T18:49:26.548Z,98756.60
2023-04-27T18:51:29.558Z,98758.41
2023-04-27T18:53:35.005Z,98759.93
2023-04-27T18:55:39.874Z,98758.75
2023-04-27T18:57:43.751Z,98761.44
2023-04-27T18:59:48.048Z,98767.38
2023-04-27T19:01:51.201Z,98772.40
2023-04-27T19:03:55.169Z,98771.87
2023-04-27T19:05:59.065Z,98773.33
2023-04-27T19:08:02.522Z,98771.07
2023-04-27T19:10:07.204Z,98774.34
2023-04-27T19:12:10.388Z,98772.82
2023-04-27T19:14:14.250Z,98772.63
2023-04-27T19:16:35.028Z,98768.55
2023-04-27T19:18:40.401Z,98769.02
2023-04-27T19:20:44.659Z,98764.65
2023-04-27T19:22:47.928Z,98764.36
2023-04-27T19:24:53.505Z,98762.47
2023-04-27T19:26:56.461Z,98761.45
2023-04-27T19:28:59.817Z,98761.33
2023-04-27T19:31:03.436Z,98761.48
2023-04-27T19:33:06.730Z,98763.09
2023-04-27T19:35:13.057Z,98757.65
2023-04-27T19:37:16.969Z,98758.68
2023-04-27T19:39:21.073Z,98757.62
2023-04-27T19:41:25.388Z,98756.41
2023-04-27T19:43:30.157Z,98754.08
2023-04-27T19:45:34.011Z,98752.95
2023-04-27T19:47:39.436Z,98758.60
2023-04-27T19:49:42.604Z,98756.00
2023-04-27T19:51:47.006Z,98755.59
2023-04-27T19:53:50.602Z,98754.59
2023-04-27T19:55:54.768Z,98751.89
2023-04-27T19:57:58.676Z,98748.14
2023-04-27T20:00:01.867Z,98749.08
2023-04-27T20:02:22.907Z,98747.92
2023-04-27T20:04:34.501Z,98743.06
2023-04-27T20:06:40.761Z,98748.60
2023-04-27T20:08:44.568Z,98746.54
2023-04-27T20:10:47.762Z,98749.80
2023-04-27T20:12:56.644Z,98750.53
2023-04-27T20:15:00.517Z,98749.62
2023-04-27T20:17:04.858Z,98746.58
2023-04-27T20:19:08.014Z,98742.20
2023-04-27T20:21:11.684Z,98740.27
2023-04-27T20:23:16.386Z,98742.78
2023-04-27T20:25:21.464Z,98740.34
2023-04-27T20:27:25.400Z,98741.94
2023-04-27T20:29:31.834Z,98737.50
2023-04-27T20:31:38.169Z,98740.08
2023-04-27T20:33:41.281Z,98741.05
2023-04-27T20:36:01.001Z,98740.90
2023-04-27T20:38:11.178Z,98742.72
2023-04-27T20:40:17.590Z,98743.06
2023-04-27T20:42:20.916Z,98743.98
2023-04-27T20:44:24.778Z,98743.90
2023-04-27T20:46:28.458Z,98746.36
2023-04-27T20:48:31.367Z,98754.52
2023-04-27T20:50:34.562Z,98754.73
2023-04-27T20:52:40.707Z,98754.45
2023-04-27T20:54:45.155Z,98754.32
2023-04-27T20:56:48.428Z,98749.11
2023-04-27T20:58:51.564Z,98751.36
2023-04-27T21:00:54.616Z,98744.48
2023-04-27T21:02:57.612Z,98746.63
2023-04-27T21:05:00.593Z,98745.42
2023-04-27T21:07:04.460Z,98745.66
2023-04-27T21:09:07.394Z,98749.06
2023-04-27T21:11:12.132Z,98747.02
2023-04-27T21:13:15.341Z,98747.33
2023-04-27T21:15:18.311Z,98745.30
2023-04-27T21:17:21.191Z,98741.55
2023-04-27T21:19:23.791Z,98741.55
2023-04-27T21:21:27.879Z,98737.52
2023-04-27T21:23:30.600Z,98737.67
2023-04-27T21:25:34.892Z,98736.12
2023-04-27T21:27:37.817Z,98738.95
2023-04-27T21:29:41.665Z,98738.23
2023-04-27T21:31:45.030Z,98737.20
2023-04-27T21:33:47.766Z,98737.93
2023-04-27T21:35:50.620Z,98736.89
2023-04-27T21:37:54.479Z,98736.31
2023-04-27T21:39:59.910Z,98732.88
2023-04-27T21:42:05.834Z,98728.73
2023-04-27T21:44:10.113Z,98732.95
2023-04-27T21:46:12.930Z,98733.59
2023-04-27T21:48:16.708Z,98735.66
2023-04-27T21:50:19.466Z,98730.92
2023-04-27T21:52:35.803Z,98738.83
2023-04-27T21:54:39.555Z,98735.91
2023-04-27T21:56:42.852Z,98733.86
2023-04-27T21:58:47.200Z,98735.16
2023-04-27T22:00:50.005Z,98734.54
2023-04-27T22:02:59.436Z,98733.63
2023-04-27T22:05:02.744Z,98737.37
2023-04-27T22:07:08.344Z,98733.21
2023-04-27T22:09:12.337Z,98728.23
2023-04-27T22:11:19.829Z,98721.66
2023-04-27T22:13:24.306Z,98716.33
2023-04-27T22:15:27.503Z,98716.48
2023-04-27T22:17:30.376Z,98712.94
2023-04-27T22:19:34.043Z,98709.29
2023-04-27T22:21:39.365Z,98710.75
2023-04-27T22:23:43.403Z,98708.35
2023-04-27T22:25:49.100Z,98715.52
2023-04-27T22:27:52.044Z,98712.27
2023-04-27T22:29:55.905Z,98715.02
2023-04-27T22:31:59.224Z,98714.98
2023-04-27T22:34:03.691Z,98717.19
2023-04-27T22:36:06.817Z,98719.52
2023-04-27T22:38:09.675Z,98718.98
2023-04-27T22:40:15.126Z,98715.09
2023-04-27T22:42:18.765Z,98718.42
2023-04-27T22:44:22.289Z,98712.60
2023-04-27T22:46:25.493Z,98714.06
2023-04-27T22:48:29.987Z,98709.11
2023-04-27T22:50:32.907Z,98708.18
2023-04-27T22:52:37.244Z,98708.73
2023-04-27T22:54:40.406Z,98710.20
2023-04-27T22:56:44.480Z,98715.30
2023-04-27T22:58:47.669Z,98713.36
2023-04-27T23:00:51.596Z,98712.18
2023-04-27T23:02:57.687Z,98708.80
2023-04-27T23:05:01.695Z,98710.69
2023-04-27T23:07:06.015Z,98706.70
2023-04-27T23:09:11.410Z,98704.41
2023-04-27T23:11:18.336Z,98707.63
2023-04-27T23:13:21.339Z,98709.11
2023-04-27T23:15:34.320Z,98709.44
2023-04-27T23:17:41.485Z,98707.23
2023-04-27T23:19:46.876Z,98704.20
2023-04-27T23:21:52.521Z,98702.17
2023-04-27T23:23:57.936Z,98705.27
2023-04-27T23:26:10.224Z,98709.17
2023-04-27T23:28:14.465Z,98704.44
2023-04-27T23:30:17.563Z,98703.73
2023-04-27T23:32:23.347Z,98706.73
2023-04-27T23:34:27.091Z,98701.95
2023-04-27T23:36:31.323Z,98698.34
2023-04-27T23:38:35.923Z,98693.66
2023-04-27T23:40:41.651Z,98689.23
2023-04-27T23:42:46.547Z,98686.25
2023-04-27T23:44:53.125Z,98687.43
2023-04-27T23:46:57.936Z,98690.92
2023-04-27T23:49:01.116Z,98687.63
2023-04-27T23:51:07.107Z,98684.75
2023-04-27T23:53:11.233Z,98685.90
2023-04-27T23:55:14.270Z,98681.29
2023-04-27T23:57:17.772Z,98677.36
2023-04-27T23:59:21.919Z,98671.59
